createdAt,value
2023-02-16T00:00:30.412Z,42.13
2023-02-16T00:01:30.450Z,43.25
2023-02-16T00:02:27.015Z,40.00
2023-02-16T00:03:23.652Z,45.58
2023-02-16T00:04:27.520Z,42.55
2023-02-16T00:05:32.794Z,41.08
2023-02-16T00:06:29.635Z,41.00
2023-02-16T00:07:26.182Z,40.00
2023-02-16T00:08:22.850Z,40.60
2023-02-16T00:09:20.874Z,39.53
2023-02-16T00:10:17.529Z,41.65
2023-02-16T00:11:37.056Z,40.13
2023-02-16T00:12:52.294Z,39.83
2023-02-16T00:13:48.971Z,40.10
2023-02-16T00:14:45.654Z,38.63
2023-02-16T00:15:42.563Z,40.13
2023-02-16T00:16:39.517Z,39.80
2023-02-16T00:17:36.169Z,39.38
2023-02-16T00:18:32.740Z,39.65
2023-02-16T00:19:40.780Z,37.33
2023-02-16T00:20:37.322Z,38.50
2023-02-16T00:21:33.864Z,37.83
2023-02-16T00:22:30.427Z,38.28
2023-02-16T00:23:26.969Z,36.83
2023-02-16T00:24:24.706Z,38.42
2023-02-16T00:25:21.265Z,36.38
2023-02-16T00:26:26.055Z,36.88
2023-02-16T00:27:22.622Z,37.90
2023-02-16T00:28:21.147Z,37.25
2023-02-16T00:29:20.506Z,34.08
2023-02-16T00:30:20.844Z,34.40
2023-02-16T00:31:23.396Z,35.00
2023-02-16T00:32:20.177Z,33.63
2023-02-16T00:33:19.649Z,34.47
2023-02-16T00:34:24.029Z,34.70
2023-02-16T00:35:21.979Z,34.40
2023-02-16T00:36:18.884Z,34.25
2023-02-16T00:37:15.565Z,35.10
2023-02-16T00:38:13.190Z,35.38
2023-02-16T00:39:09.754Z,35.00
2023-02-16T00:40:07.084Z,33.55
2023-02-16T00:41:04.300Z,34.05
2023-02-16T00:42:06.387Z,36.17
2023-02-16T00:43:03.600Z,35.90
2023-02-16T00:44:00.229Z,35.80
2023-02-16T00:44:57.976Z,35.85
2023-02-16T00:45:55.229Z,36.10
2023-02-16T00:46:52.000Z,35.80
2023-02-16T00:47:51.819Z,35.28
2023-02-16T00:48:48.399Z,35.72
2023-02-16T00:49:45.331Z,33.80
2023-02-16T00:50:41.939Z,32.65
2023-02-16T00:51:38.528Z,33.65
2023-02-16T00:52:36.861Z,34.50
2023-02-16T00:53:33.471Z,33.72
2023-02-16T00:54:31.946Z,33.47
2023-02-16T00:55:33.534Z,32.70
2023-02-16T00:56:30.177Z,32.33
2023-02-16T00:57:31.021Z,32.60
2023-02-16T00:58:31.105Z,32.15
2023-02-16T00:59:27.827Z,31.05
2023-02-16T01:00:28.627Z,31.08
2023-02-16T01:01:29.301Z,30.88
2023-02-16T01:02:25.938Z,32.40
2023-02-16T01:03:26.208Z,31.40
2023-02-16T01:04:23.853Z,30.08
2023-02-16T01:05:20.719Z,31.90
2023-02-16T01:06:35.892Z,30.80
2023-02-16T01:07:50.980Z,31.17
2023-02-16T01:09:05.995Z,31.42
2023-02-16T01:10:21.446Z,31.95
2023-02-16T01:11:19.126Z,30.27
2023-02-16T01:12:18.796Z,30.15
2023-02-16T01:13:15.794Z,32.40
2023-02-16T01:14:13.466Z,33.13
2023-02-16T01:15:13.858Z,33.10
2023-02-16T01:16:14.811Z,32.05
2023-02-16T01:17:11.713Z,30.20
2023-02-16T01:18:08.796Z,30.40
2023-02-16T01:19:06.790Z,31.00
2023-02-16T01:20:03.673Z,30.92
2023-02-16T01:21:00.255Z,32.28
2023-02-16T01:21:56.836Z,50.40
2023-02-16T01:22:53.458Z,36.35
2023-02-16T01:23:50.142Z,34.45
2023-02-16T01:24:46.760Z,34.78
2023-02-16T01:25:43.446Z,35.17
2023-02-16T01:26:44.100Z,43.25
2023-02-16T01:27:41.464Z,54.58
2023-02-16T01:28:38.205Z,51.65
2023-02-16T01:29:34.745Z,49.00
2023-02-16T01:30:31.437Z,46.25
2023-02-16T01:31:28.185Z,40.80
2023-02-16T01:32:24.981Z,41.67
2023-02-16T01:33:22.189Z,44.80
2023-02-16T01:34:18.802Z,45.70
2023-02-16T01:35:15.426Z,36.53
2023-02-16T01:36:26.610Z,39.75
2023-02-16T01:37:23.820Z,36.47
2023-02-16T01:38:23.114Z,39.90
2023-02-16T01:39:20.772Z,36.45
2023-02-16T01:40:38.324Z,36.63
2023-02-16T01:41:44.653Z,36.42
2023-02-16T01:42:52.078Z,37.10
2023-02-16T01:43:55.233Z,35.17
2023-02-16T01:44:57.258Z,33.80
2023-02-16T01:46:06.691Z,36.00
2023-02-16T01:47:31.385Z,36.50
2023-02-16T01:48:31.137Z,34.72
2023-02-16T01:49:28.098Z,35.97
2023-02-16T01:50:27.710Z,36.55
2023-02-16T01:51:29.509Z,36.42
2023-02-16T01:52:41.878Z,27.25
2023-02-16T01:54:01.680Z,33.00
2023-02-16T01:55:10.559Z,32.78
2023-02-16T01:56:19.316Z,33.17
2023-02-16T01:57:34.116Z,33.58
2023-02-16T01:58:54.399Z,32.58
2023-02-16T01:59:50.995Z,32.25
2023-02-16T02:00:54.831Z,33.83
2023-02-16T02:02:03.563Z,34.92
2023-02-16T02:03:21.568Z,33.75
2023-02-16T02:04:40.264Z,32.63
2023-02-16T02:05:37.198Z,34.33
2023-02-16T02:06:35.451Z,34.88
2023-02-16T02:07:42.063Z,33.90
2023-02-16T02:08:56.644Z,34.67
2023-02-16T02:10:25.607Z,33.33
2023-02-16T02:11:33.167Z,31.85
2023-02-16T02:12:37.437Z,32.10
2023-02-16T02:13:43.449Z,32.25
2023-02-16T02:14:40.776Z,32.00
2023-02-16T02:15:37.451Z,31.88
2023-02-16T02:16:34.175Z,32.53
2023-02-16T02:17:31.529Z,32.20
2023-02-16T02:18:28.087Z,31.27
2023-02-16T02:19:25.006Z,31.25
2023-02-16T02:20:58.178Z,32.83
2023-02-16T02:22:51.926Z,30.60
2023-02-16T02:24:26.087Z,30.55
2023-02-16T02:26:43.993Z,27.08
2023-02-16T02:28:03.700Z,28.23
2023-02-16T02:29:18.849Z,32.70
2023-02-16T02:30:21.229Z,28.27
2023-02-16T02:32:54.967Z,37.50
2023-02-16T02:34:18.138Z,29.42
2023-02-16T02:35:47.722Z,31.98
2023-02-16T02:36:58.918Z,31.20
2023-02-16T02:38:30.821Z,33.25
2023-02-16T02:39:46.709Z,36.83
2023-02-16T02:41:22.775Z,39.85
2023-02-16T02:42:43.660Z,42.00
2023-02-16T02:43:49.200Z,38.80
2023-02-16T02:44:48.742Z,37.97
2023-02-16T02:45:56.403Z,39.58
2023-02-16T02:46:53.927Z,41.58
2023-02-16T02:47:50.620Z,41.67
2023-02-16T02:48:47.226Z,45.08
2023-02-16T02:49:54.627Z,44.30
2023-02-16T02:51:17.004Z,42.72
2023-02-16T02:52:13.738Z,45.70
2023-02-16T02:53:14.116Z,49.88
2023-02-16T02:54:43.620Z,53.67
2023-02-16T02:56:04.646Z,52.47
2023-02-16T02:57:40.592Z,49.95
2023-02-16T02:58:57.468Z,48.60
2023-02-16T03:00:21.661Z,49.95
2023-02-16T03:01:20.514Z,53.80
2023-02-16T03:02:19.011Z,58.17
2023-02-16T03:03:32.111Z,52.92
2023-02-16T03:05:31.414Z,49.38
2023-02-16T03:06:33.872Z,49.88
2023-02-16T03:08:48.157Z,46.65
2023-02-16T03:09:44.846Z,47.38
2023-02-16T03:11:22.799Z,49.30
2023-02-16T03:12:38.083Z,44.13
2023-02-16T03:14:00.272Z,44.42
2023-02-16T03:15:00.498Z,47.20
2023-02-16T03:15:59.031Z,47.72
2023-02-16T03:17:18.135Z,47.08
2023-02-16T03:18:35.540Z,44.30
2023-02-16T03:19:50.849Z,46.17
2023-02-16T03:21:06.240Z,46.33
2023-02-16T03:22:22.734Z,46.97
2023-02-16T03:23:37.911Z,47.38
2023-02-16T03:24:53.234Z,50.20
2023-02-16T03:26:10.654Z,50.70
2023-02-16T03:27:27.259Z,50.05
2023-02-16T03:28:47.358Z,53.03
2023-02-16T03:29:46.646Z,52.53
2023-02-16T03:30:45.387Z,53.35
2023-02-16T03:31:43.344Z,53.58
2023-02-16T03:32:40.104Z,55.03
2023-02-16T03:33:36.983Z,53.83
2023-02-16T03:34:36.230Z,59.13
2023-02-16T03:35:33.020Z,58.30
2023-02-16T03:36:31.729Z,60.05
2023-02-16T03:37:28.332Z,60.42
2023-02-16T03:38:25.487Z,60.90
2023-02-16T03:39:22.138Z,63.53
2023-02-16T03:40:28.611Z,65.80
2023-02-16T03:41:26.516Z,63.88
2023-02-16T03:42:24.169Z,65.82
2023-02-16T03:43:25.145Z,61.15
2023-02-16T03:44:22.378Z,61.25
2023-02-16T03:45:20.754Z,61.35
2023-02-16T03:46:17.593Z,63.92
2023-02-16T03:47:14.716Z,66.18
2023-02-16T03:48:11.767Z,65.93
2023-02-16T03:49:08.456Z,61.25
2023-02-16T03:50:05.613Z,60.38
2023-02-16T03:51:02.316Z,56.63
2023-02-16T03:51:59.018Z,56.05
2023-02-16T03:53:06.872Z,54.17
2023-02-16T03:54:03.750Z,49.45
2023-02-16T03:55:00.595Z,50.80
2023-02-16T03:55:57.160Z,51.90
2023-02-16T03:56:53.778Z,52.50
2023-02-16T03:57:50.436Z,51.83
2023-02-16T03:58:46.976Z,51.05
2023-02-16T03:59:43.506Z,53.75
2023-02-16T04:00:41.090Z,57.85
2023-02-16T04:01:37.701Z,58.45
2023-02-16T04:02:34.235Z,55.22
2023-02-16T04:03:30.902Z,56.88
2023-02-16T04:04:27.630Z,58.90
2023-02-16T04:05:24.401Z,61.20
2023-02-16T04:06:21.019Z,61.97
2023-02-16T04:07:17.670Z,62.60
2023-02-16T04:08:14.277Z,64.15
2023-02-16T04:09:11.097Z,68.57
2023-02-16T04:10:08.002Z,71.28
2023-02-16T04:11:24.272Z,70.45
2023-02-16T04:12:39.132Z,63.25
2023-02-16T04:13:37.616Z,69.53
2023-02-16T04:14:34.176Z,68.97
2023-02-16T04:15:31.794Z,69.22
2023-02-16T04:16:28.452Z,67.60
2023-02-16T04:17:25.334Z,69.63
2023-02-16T04:18:21.973Z,68.15
2023-02-16T04:19:18.550Z,70.90
2023-02-16T04:20:18.343Z,70.05
2023-02-16T04:21:15.026Z,67.97
2023-02-16T04:22:11.607Z,69.30
2023-02-16T04:23:08.299Z,68.22
2023-02-16T04:24:06.330Z,66.78
2023-02-16T04:25:02.893Z,64.28
2023-02-16T04:25:59.430Z,64.95
2023-02-16T04:26:56.089Z,62.28
2023-02-16T04:27:53.568Z,62.17
2023-02-16T04:28:50.155Z,63.15
2023-02-16T04:29:46.736Z,60.72
2023-02-16T04:30:43.430Z,64.05
2023-02-16T04:31:40.135Z,65.05
2023-02-16T04:32:36.862Z,62.28
2023-02-16T04:33:33.520Z,60.10
2023-02-16T04:34:30.159Z,59.70
2023-02-16T04:35:27.155Z,58.55
2023-02-16T04:36:23.759Z,56.25
2023-02-16T04:37:20.969Z,57.88
2023-02-16T04:38:17.644Z,57.40
2023-02-16T04:39:14.265Z,59.42
2023-02-16T04:40:16.210Z,61.17
2023-02-16T04:41:12.921Z,59.42
2023-02-16T04:42:09.567Z,56.42
2023-02-16T04:43:06.310Z,58.60
2023-02-16T04:44:03.161Z,58.65
2023-02-16T04:44:59.777Z,57.22
2023-02-16T04:45:56.406Z,59.00
2023-02-16T04:46:53.121Z,56.67
2023-02-16T04:47:49.767Z,58.38
2023-02-16T04:48:46.643Z,60.22
2023-02-16T04:49:43.361Z,61.47
2023-02-16T04:50:40.020Z,59.90
2023-02-16T04:51:36.649Z,61.95
2023-02-16T04:52:34.424Z,59.35
2023-02-16T04:53:31.030Z,59.35
2023-02-16T04:54:28.042Z,60.95
2023-02-16T04:55:25.613Z,63.67
2023-02-16T04:56:22.207Z,62.47
2023-02-16T04:57:21.394Z,64.45
2023-02-16T04:58:17.967Z,62.13
2023-02-16T04:59:15.771Z,62.30
2023-02-16T05:00:14.023Z,62.28
2023-02-16T05:01:22.010Z,66.50
2023-02-16T05:02:18.768Z,63.72
2023-02-16T05:03:15.378Z,64.43
2023-02-16T05:04:12.088Z,66.05
2023-02-16T05:05:09.186Z,63.03
2023-02-16T05:06:05.867Z,65.10
2023-02-16T05:07:02.482Z,62.50
2023-02-16T05:07:59.100Z,64.50
2023-02-16T05:08:55.661Z,63.55
2023-02-16T05:09:52.312Z,63.40
2023-02-16T05:11:08.890Z,64.15
2023-02-16T05:12:24.373Z,60.05
2023-02-16T05:13:40.247Z,61.15
2023-02-16T05:14:47.284Z,56.63
2023-02-16T05:15:45.191Z,62.13
2023-02-16T05:16:42.173Z,63.63
2023-02-16T05:17:38.835Z,65.03
2023-02-16T05:18:35.432Z,62.60
2023-02-16T05:19:32.326Z,64.35
2023-02-16T05:20:47.673Z,66.80
2023-02-16T05:21:44.201Z,63.05
2023-02-16T05:22:40.873Z,66.03
2023-02-16T05:23:37.463Z,65.50
2023-02-16T05:24:34.967Z,65.10
2023-02-16T05:25:31.506Z,68.18
2023-02-16T05:26:28.770Z,67.35
2023-02-16T05:27:27.690Z,66.22
2023-02-16T05:28:24.356Z,66.32
2023-02-16T05:29:21.352Z,69.07
2023-02-16T05:30:17.982Z,68.43
2023-02-16T05:31:14.731Z,68.63
2023-02-16T05:32:11.567Z,66.15
2023-02-16T05:33:08.170Z,64.78
2023-02-16T05:34:05.238Z,68.75
2023-02-16T05:35:01.897Z,65.88
2023-02-16T05:35:58.537Z,69.78
2023-02-16T05:36:55.289Z,66.22
2023-02-16T05:37:51.849Z,66.32
2023-02-16T05:38:48.955Z,66.90
2023-02-16T05:39:45.919Z,69.10
2023-02-16T05:40:42.538Z,67.55
2023-02-16T05:41:39.207Z,66.90
2023-02-16T05:42:35.890Z,67.18
2023-02-16T05:43:32.458Z,68.18
2023-02-16T05:44:29.133Z,66.97
2023-02-16T05:45:25.727Z,69.15
2023-02-16T05:46:23.815Z,70.07
2023-02-16T05:47:20.473Z,68.30
2023-02-16T05:48:17.811Z,71.93
2023-02-16T05:49:16.170Z,73.65
2023-02-16T05:50:12.725Z,73.63
2023-02-16T05:51:09.309Z,68.50
2023-02-16T05:52:06.018Z,67.25
2023-02-16T05:53:02.571Z,67.22
2023-02-16T05:53:59.561Z,67.45
2023-02-16T05:54:58.157Z,68.63
2023-02-16T05:55:54.742Z,80.18
2023-02-16T05:56:52.609Z,68.55
2023-02-16T05:57:49.242Z,68.38
2023-02-16T05:58:46.221Z,65.15
2023-02-16T05:59:42.796Z,66.07
2023-02-16T06:00:39.382Z,66.45
2023-02-16T06:01:35.982Z,67.72
2023-02-16T06:02:32.563Z,69.53
2023-02-16T06:03:29.218Z,102.68
2023-02-16T06:04:25.970Z,89.00
2023-02-16T06:05:22.572Z,78.93
2023-02-16T06:06:19.683Z,76.57
2023-02-16T06:07:16.238Z,74.32
2023-02-16T06:08:12.848Z,71.90
2023-02-16T06:09:09.556Z,68.60
2023-02-16T06:10:06.839Z,69.18
2023-02-16T06:11:04.258Z,68.30
2023-02-16T06:12:01.123Z,67.53
2023-02-16T06:12:57.917Z,64.20
2023-02-16T06:13:59.450Z,54.45
2023-02-16T06:14:56.087Z,52.67
2023-02-16T06:15:55.528Z,65.95
2023-02-16T06:16:52.191Z,60.20
2023-02-16T06:17:48.808Z,63.03
2023-02-16T06:18:45.417Z,74.57
2023-02-16T06:19:42.035Z,85.68
2023-02-16T06:20:39.504Z,88.07
2023-02-16T06:21:36.798Z,72.00
2023-02-16T06:22:33.587Z,73.90
2023-02-16T06:23:30.190Z,62.45
2023-02-16T06:24:27.146Z,64.20
2023-02-16T06:25:23.755Z,59.03
2023-02-16T06:26:20.734Z,59.38
2023-02-16T06:27:17.347Z,74.93
2023-02-16T06:28:14.000Z,60.42
2023-02-16T06:29:10.862Z,78.68
2023-02-16T06:30:08.789Z,80.30
2023-02-16T06:31:05.772Z,70.68
2023-02-16T06:32:02.712Z,73.25
2023-02-16T06:32:59.509Z,75.18
2023-02-16T06:33:57.127Z,77.55
2023-02-16T06:34:53.767Z,71.57
2023-02-16T06:35:50.374Z,72.22
2023-02-16T06:36:47.223Z,68.53
2023-02-16T06:37:44.090Z,63.28
2023-02-16T06:38:40.850Z,60.40
2023-02-16T06:39:37.512Z,61.85
2023-02-16T06:40:34.260Z,60.47
2023-02-16T06:41:38.021Z,59.83
2023-02-16T06:42:34.633Z,56.15
2023-02-16T06:43:31.539Z,58.00
2023-02-16T06:44:28.613Z,57.97
2023-02-16T06:45:25.274Z,59.35
2023-02-16T06:46:22.045Z,58.17
2023-02-16T06:47:18.617Z,59.15
2023-02-16T06:48:15.331Z,63.55
2023-02-16T06:49:14.344Z,61.83
2023-02-16T06:50:13.714Z,62.38
2023-02-16T06:51:10.349Z,63.45
2023-02-16T06:52:06.991Z,67.45
2023-02-16T06:53:03.903Z,58.92
2023-02-16T06:54:00.642Z,69.50
2023-02-16T06:54:57.293Z,50.42
2023-02-16T06:55:53.991Z,45.28
2023-02-16T06:56:50.564Z,43.88
2023-02-16T06:57:47.150Z,43.78
2023-02-16T06:58:43.751Z,45.83
2023-02-16T06:59:40.475Z,44.63
2023-02-16T07:00:37.257Z,46.33
2023-02-16T07:01:34.210Z,49.38
2023-02-16T07:02:30.816Z,55.28
2023-02-16T07:03:27.488Z,56.97
2023-02-16T07:04:24.094Z,60.50
2023-02-16T07:05:20.727Z,55.67
2023-02-16T07:06:17.549Z,58.00
2023-02-16T07:07:14.434Z,53.67
2023-02-16T07:08:11.193Z,57.58
2023-02-16T07:09:07.791Z,58.65
2023-02-16T07:10:04.593Z,60.17
2023-02-16T07:11:01.235Z,60.33
2023-02-16T07:11:58.399Z,55.47
2023-02-16T07:12:55.082Z,56.83
2023-02-16T07:13:51.879Z,54.92
2023-02-16T07:14:48.489Z,57.85
2023-02-16T07:15:45.164Z,58.78
2023-02-16T07:16:42.056Z,58.20
2023-02-16T07:17:38.725Z,59.50
2023-02-16T07:18:35.669Z,56.65
2023-02-16T07:19:33.762Z,57.13
2023-02-16T07:20:30.396Z,57.08
2023-02-16T07:21:27.190Z,56.88
2023-02-16T07:22:23.852Z,53.95
2023-02-16T07:23:21.244Z,56.25
2023-02-16T07:24:18.193Z,54.22
2023-02-16T07:25:14.815Z,52.83
2023-02-16T07:26:11.681Z,47.38
2023-02-16T07:27:08.728Z,47.65
2023-02-16T07:28:05.335Z,52.05
2023-02-16T07:29:01.982Z,53.13
2023-02-16T07:29:58.633Z,51.70
2023-02-16T07:30:55.455Z,52.30
2023-02-16T07:31:52.482Z,49.97
2023-02-16T07:32:49.470Z,49.22
2023-02-16T07:33:46.091Z,47.63
2023-02-16T07:34:42.759Z,51.17
2023-02-16T07:35:39.562Z,46.90
2023-02-16T07:36:36.146Z,50.88
2023-02-16T07:37:32.737Z,50.85
2023-02-16T07:38:30.808Z,49.70
2023-02-16T07:39:29.440Z,47.40
2023-02-16T07:40:26.737Z,48.97
2023-02-16T07:41:23.486Z,53.00
2023-02-16T07:42:21.313Z,54.38
2023-02-16T07:43:18.513Z,54.30
2023-02-16T07:44:15.174Z,51.33
2023-02-16T07:45:11.738Z,54.75
2023-02-16T07:46:08.584Z,57.08
2023-02-16T07:47:05.244Z,57.40
2023-02-16T07:48:02.413Z,60.33
2023-02-16T07:48:59.219Z,66.13
2023-02-16T07:49:55.820Z,72.13
2023-02-16T07:50:52.728Z,71.53
2023-02-16T07:51:49.307Z,65.93
2023-02-16T07:52:45.978Z,64.15
2023-02-16T07:53:42.585Z,62.63
2023-02-16T07:54:39.428Z,59.80
2023-02-16T07:55:43.508Z,59.45
2023-02-16T07:56:40.137Z,64.22
2023-02-16T07:57:38.715Z,60.10
2023-02-16T07:58:36.795Z,49.97
2023-02-16T07:59:33.490Z,52.05
2023-02-16T08:00:30.143Z,54.67
2023-02-16T08:01:26.864Z,53.58
2023-02-16T08:02:23.960Z,53.45
2023-02-16T08:03:20.704Z,49.28
2023-02-16T08:04:17.303Z,49.58
2023-02-16T08:05:14.058Z,50.90
2023-02-16T08:06:10.892Z,50.42
2023-02-16T08:07:07.517Z,46.78
2023-02-16T08:08:04.995Z,48.72
2023-02-16T08:09:01.671Z,48.65
2023-02-16T08:09:59.046Z,50.67
2023-02-16T08:10:55.778Z,47.85
2023-02-16T08:11:52.302Z,48.17
2023-02-16T08:12:49.919Z,50.17
2023-02-16T08:13:47.300Z,48.95
2023-02-16T08:14:44.825Z,47.92
2023-02-16T08:15:44.364Z,48.10
2023-02-16T08:16:40.936Z,44.45
2023-02-16T08:17:37.822Z,47.65
2023-02-16T08:18:35.447Z,49.85
2023-02-16T08:19:32.140Z,54.17
2023-02-16T08:20:46.059Z,55.80
2023-02-16T08:21:49.374Z,52.83
2023-02-16T08:22:46.034Z,53.65
2023-02-16T08:24:07.679Z,51.30
2023-02-16T08:25:07.009Z,51.03
2023-02-16T08:26:11.545Z,55.13
2023-02-16T08:27:08.222Z,51.47
2023-02-16T08:28:06.987Z,53.60
2023-02-16T08:29:05.527Z,53.85
2023-02-16T08:30:02.264Z,51.58
2023-02-16T08:31:04.150Z,55.55
2023-02-16T08:32:01.468Z,52.55
2023-02-16T08:33:01.108Z,46.53
2023-02-16T08:34:00.392Z,50.70
2023-02-16T08:34:57.441Z,52.20
2023-02-16T08:35:54.054Z,51.00
2023-02-16T08:36:56.821Z,48.10
2023-02-16T08:37:53.514Z,44.05
2023-02-16T08:38:52.204Z,47.97
2023-02-16T08:39:49.392Z,50.03
2023-02-16T08:40:50.049Z,54.78
2023-02-16T08:41:48.733Z,51.80
2023-02-16T08:42:45.454Z,49.60
2023-02-16T08:43:42.043Z,53.67
2023-02-16T08:44:39.530Z,51.60
2023-02-16T08:45:36.318Z,50.67
2023-02-16T08:46:34.384Z,48.83
2023-02-16T08:47:31.420Z,49.00
2023-02-16T08:48:28.972Z,49.92
2023-02-16T08:49:26.062Z,50.78
2023-02-16T08:50:22.672Z,52.78
2023-02-16T08:51:20.411Z,54.30
2023-02-16T08:52:16.996Z,55.38
2023-02-16T08:53:15.461Z,54.95
2023-02-16T08:54:16.932Z,52.70
2023-02-16T08:55:14.053Z,51.67
2023-02-16T08:56:12.719Z,50.22
2023-02-16T08:57:09.461Z,50.88
2023-02-16T08:58:06.046Z,48.13
2023-02-16T08:59:02.810Z,46.83
2023-02-16T09:00:17.813Z,46.30
2023-02-16T09:01:15.361Z,45.83
2023-02-16T09:02:12.430Z,46.95
2023-02-16T09:03:09.017Z,47.75
2023-02-16T09:04:05.828Z,47.90
2023-02-16T09:05:02.542Z,50.58
2023-02-16T09:06:02.830Z,48.00
2023-02-16T09:06:59.939Z,45.65
2023-02-16T09:07:57.630Z,47.30
2023-02-16T09:08:57.009Z,48.63
2023-02-16T09:09:53.602Z,46.80
2023-02-16T09:10:50.369Z,49.60
2023-02-16T09:11:47.281Z,46.42
2023-02-16T09:12:43.912Z,46.90
2023-02-16T09:13:41.190Z,46.50
2023-02-16T09:14:37.810Z,48.70
2023-02-16T09:15:34.870Z,50.75
2023-02-16T09:16:35.449Z,49.35
2023-02-16T09:17:32.097Z,50.53
2023-02-16T09:18:28.735Z,48.95
2023-02-16T09:19:26.039Z,49.08
2023-02-16T09:20:23.774Z,50.72
2023-02-16T09:21:25.474Z,50.08
2023-02-16T09:22:22.527Z,49.35
2023-02-16T09:23:20.596Z,53.03
2023-02-16T09:24:17.293Z,50.03
2023-02-16T09:25:15.673Z,49.20
2023-02-16T09:26:12.326Z,51.33
2023-02-16T09:27:09.380Z,54.67
2023-02-16T09:28:06.806Z,53.05
2023-02-16T09:29:04.579Z,52.30
2023-02-16T09:30:01.265Z,51.33
2023-02-16T09:30:58.946Z,51.10
2023-02-16T09:31:55.799Z,53.22
2023-02-16T09:32:52.520Z,52.47
2023-02-16T09:33:49.210Z,50.88
2023-02-16T09:34:47.036Z,50.03
2023-02-16T09:35:43.641Z,50.42
2023-02-16T09:36:40.349Z,51.33
2023-02-16T09:37:36.939Z,51.10
2023-02-16T09:38:34.126Z,49.67
2023-02-16T09:39:31.037Z,50.20
2023-02-16T09:40:27.601Z,49.75
2023-02-16T09:41:39.280Z,49.75
2023-02-16T09:42:55.016Z,49.03
2023-02-16T09:44:21.891Z,48.70
2023-02-16T09:45:20.562Z,48.70
2023-02-16T09:46:22.543Z,47.28
2023-02-16T09:47:31.441Z,49.33
2023-02-16T09:48:37.589Z,48.38
2023-02-16T09:49:38.937Z,49.22
2023-02-16T09:50:53.061Z,47.88
2023-02-16T09:52:00.670Z,48.55
2023-02-16T09:53:10.042Z,50.20
2023-02-16T09:54:35.937Z,47.45
2023-02-16T09:55:46.568Z,46.83
2023-02-16T09:57:08.367Z,46.17
2023-02-16T09:58:19.062Z,45.28
2023-02-16T09:59:36.552Z,44.15
2023-02-16T10:00:33.223Z,43.50
2023-02-16T10:01:47.827Z,43.70
2023-02-16T10:02:57.892Z,42.72
2023-02-16T10:04:23.841Z,43.90
2023-02-16T10:05:31.097Z,41.58
2023-02-16T10:06:58.470Z,41.47
2023-02-16T10:07:57.482Z,42.30
2023-02-16T10:09:09.646Z,41.72
2023-02-16T10:10:08.086Z,41.38
2023-02-16T10:11:30.423Z,41.50
2023-02-16T10:12:37.374Z,42.00
2023-02-16T10:13:44.073Z,41.55
2023-02-16T10:14:47.204Z,41.78
2023-02-16T10:15:45.482Z,41.83
2023-02-16T10:16:50.374Z,41.05
2023-02-16T10:17:52.225Z,38.45
2023-02-16T10:18:52.008Z,39.95
2023-02-16T10:19:57.447Z,38.40
2023-02-16T10:20:56.676Z,37.58
2023-02-16T10:22:00.010Z,39.05
2023-02-16T10:23:25.800Z,39.80
2023-02-16T10:24:24.844Z,37.20
2023-02-16T10:25:28.704Z,39.35
2023-02-16T10:26:39.780Z,40.17
2023-02-16T10:27:44.041Z,38.35
2023-02-16T10:28:57.302Z,36.65
2023-02-16T10:29:55.059Z,36.60
2023-02-16T10:31:00.957Z,36.85
2023-02-16T10:32:04.910Z,39.95
2023-02-16T10:33:14.351Z,38.03
2023-02-16T10:34:29.039Z,37.22
2023-02-16T10:35:50.710Z,37.72
2023-02-16T10:37:06.118Z,32.72
2023-02-16T10:38:06.074Z,32.42
2023-02-16T10:39:27.001Z,34.33
2023-02-16T10:40:33.100Z,32.33
2023-02-16T10:41:37.496Z,33.15
2023-02-16T10:42:56.476Z,32.85
2023-02-16T10:44:05.231Z,31.98
2023-02-16T10:45:14.407Z,33.72
2023-02-16T10:46:17.342Z,34.10
2023-02-16T10:47:28.052Z,32.83
2023-02-16T10:48:24.810Z,32.60
2023-02-16T10:49:21.946Z,31.10
2023-02-16T10:50:23.812Z,32.97
2023-02-16T10:51:25.512Z,32.85
2023-02-16T10:52:23.350Z,34.00
2023-02-16T10:53:29.501Z,30.38
2023-02-16T10:54:28.538Z,29.90
2023-02-16T10:55:25.933Z,32.75
2023-02-16T10:56:46.885Z,32.17
2023-02-16T10:57:43.978Z,32.95
2023-02-16T10:58:42.444Z,33.67
2023-02-16T10:59:48.288Z,33.40
2023-02-16T11:01:06.009Z,33.53
2023-02-16T11:02:17.082Z,30.77
2023-02-16T11:03:15.589Z,32.50
2023-02-16T11:04:32.254Z,31.38
2023-02-16T11:05:36.229Z,31.30
2023-02-16T11:06:36.413Z,29.40
2023-02-16T11:07:33.970Z,31.90
2023-02-16T11:08:48.095Z,30.95
2023-02-16T11:09:51.271Z,29.77
2023-02-16T11:10:51.769Z,36.58
2023-02-16T11:11:48.689Z,33.00
2023-02-16T11:12:45.317Z,24.55
2023-02-16T11:13:42.044Z,29.30
2023-02-16T11:14:38.678Z,30.98
2023-02-16T11:15:39.456Z,31.45
2023-02-16T11:16:36.734Z,26.98
2023-02-16T11:17:53.283Z,27.48
2023-02-16T11:19:03.107Z,27.35
2023-02-16T11:20:05.740Z,27.27
2023-02-16T11:21:04.159Z,27.02
2023-02-16T11:22:02.378Z,27.23
2023-02-16T11:23:23.497Z,28.45
2023-02-16T11:24:34.918Z,28.63
2023-02-16T11:25:31.565Z,27.52
2023-02-16T11:26:28.993Z,27.85
2023-02-16T11:27:26.068Z,28.15
2023-02-16T11:28:47.822Z,27.10
2023-02-16T11:29:44.682Z,26.05
2023-02-16T11:30:43.396Z,26.05
2023-02-16T11:31:40.903Z,24.13
2023-02-16T11:32:37.692Z,23.70
2023-02-16T11:33:34.910Z,22.33
2023-02-16T11:34:51.774Z,23.00
2023-02-16T11:35:48.831Z,20.60
2023-02-16T11:36:47.240Z,21.88
2023-02-16T11:37:44.336Z,24.40
2023-02-16T11:38:41.277Z,25.65
2023-02-16T11:39:40.736Z,24.02
2023-02-16T11:40:37.568Z,21.77
2023-02-16T11:41:35.571Z,23.88
2023-02-16T11:42:47.526Z,22.45
2023-02-16T11:43:44.154Z,21.88
2023-02-16T11:44:51.173Z,22.40
2023-02-16T11:46:00.741Z,20.00
2023-02-16T11:46:59.700Z,19.15
2023-02-16T11:48:25.173Z,20.60
2023-02-16T11:49:35.546Z,18.17
2023-02-16T11:50:38.703Z,17.08
2023-02-16T11:51:36.465Z,16.83
2023-02-16T11:52:33.181Z,16.63
2023-02-16T11:53:33.135Z,17.00
2023-02-16T11:54:29.724Z,19.33
2023-02-16T11:55:33.501Z,19.10
2023-02-16T11:56:33.030Z,18.75
2023-02-16T11:57:35.941Z,16.92
2023-02-16T11:58:32.588Z,15.13
2023-02-16T11:59:35.420Z,14.30
2023-02-16T12:00:34.671Z,14.43
2023-02-16T12:01:45.736Z,11.15
2023-02-16T12:03:11.884Z,12.32
2023-02-16T12:04:27.241Z,13.30
2023-02-16T12:05:48.705Z,13.52
2023-02-16T12:07:04.015Z,12.15
2023-02-16T12:08:12.892Z,12.55
2023-02-16T12:09:34.009Z,13.05
2023-02-16T12:10:42.645Z,16.10
2023-02-16T12:12:00.054Z,16.05
2023-02-16T12:13:19.207Z,16.27
2023-02-16T12:14:15.945Z,17.20
2023-02-16T12:15:19.517Z,16.58
2023-02-16T12:16:40.757Z,17.27
2023-02-16T12:17:46.816Z,17.20
2023-02-16T12:18:51.257Z,14.40
2023-02-16T12:20:02.573Z,14.38
2023-02-16T12:21:06.967Z,14.38
2023-02-16T12:22:09.830Z,16.08
2023-02-16T12:23:36.189Z,14.35
2023-02-16T12:25:01.968Z,14.35
2023-02-16T12:26:14.415Z,13.35
2023-02-16T12:27:26.872Z,14.48
2023-02-16T12:28:34.763Z,14.82
2023-02-16T12:29:46.085Z,14.27
2023-02-16T12:30:52.841Z,12.68
2023-02-16T12:31:49.555Z,12.38
2023-02-16T12:32:49.021Z,12.68
2023-02-16T12:34:01.445Z,11.68
2023-02-16T12:35:22.294Z,11.07
2023-02-16T12:36:28.582Z,11.95
2023-02-16T12:37:41.406Z,12.05
2023-02-16T12:38:52.072Z,10.35
2023-02-16T12:40:11.740Z,12.15
2023-02-16T12:41:27.238Z,11.48
2023-02-16T12:42:46.119Z,11.30
2023-02-16T12:43:51.311Z,10.65
2023-02-16T12:44:52.712Z,14.15
2023-02-16T12:45:50.401Z,37.00
2023-02-16T12:46:52.097Z,57.85
2023-02-16T12:47:59.716Z,391.83
2023-02-16T12:49:07.452Z,33.15
2023-02-16T12:50:15.326Z,13.43
2023-02-16T12:51:18.835Z,11.70
2023-02-16T12:52:27.583Z,11.05
2023-02-16T12:53:49.177Z,9.75
2023-02-16T12:54:52.148Z,11.60
2023-02-16T12:55:56.606Z,11.27
2023-02-16T12:57:09.851Z,12.45
2023-02-16T12:58:12.268Z,11.38
2023-02-16T12:59:48.748Z,10.95
2023-02-16T13:00:47.790Z,11.80
2023-02-16T13:01:48.270Z,11.65
2023-02-16T13:02:51.453Z,11.27
2023-02-16T13:03:56.832Z,11.63
2023-02-16T13:05:18.157Z,11.18
2023-02-16T13:06:19.480Z,11.10
2023-02-16T13:07:42.039Z,11.05
2023-02-16T13:08:41.639Z,11.43
2023-02-16T13:09:44.167Z,9.85
2023-02-16T13:12:10.016Z,9.95
2023-02-16T13:13:17.791Z,8.77
2023-02-16T13:14:21.965Z,8.57
2023-02-16T13:15:46.242Z,9.45
2023-02-16T13:16:48.337Z,9.63
2023-02-16T13:18:01.197Z,9.35
2023-02-16T13:18:58.573Z,9.30
2023-02-16T13:19:55.769Z,8.95
2023-02-16T13:21:05.769Z,8.45
2023-02-16T13:22:20.790Z,9.60
2023-02-16T13:23:33.949Z,9.45
2023-02-16T13:26:03.510Z,9.02